Time,TemperatureF,DewpointF,PressureIn,WindDirection,WindDirectionDegrees,WindSpeedMPH,WindSpeedGustMPH,Humidity,HourlyPrecipIn,Conditions,Clouds,dailyrainin,SoftwareType,DateUTC
2013-06-15 00:02:00,54.0,-99.9,-100.00,NNE,32,1.0,3.0,-999,-99.99,,,-99.99,,2013-06-15 07:02:00,
2013-06-15 00:11:00,54.0,-99.9,-100.00,North,8,2.0,3.0,-999,-99.99,,,-99.99,,2013-06-15 07:11:00,
2013-06-15 00:23:00,-999.0,-99.9,-100.00,NNW,346,2.0,3.0,-999,-99.99,,,-99.99,,2013-06-15 07:23:00,
2013-06-15 00:33:00,-999.0,-99.9,-100.00,NE,35,3.0,3.0,-999,-99.99,,,-99.99,,2013-06-15 07:33:00,
2013-06-15 00:43:00,55.0,-99.9,-100.00,NNE,25,3.0,4.0,-999,-99.99,,,-99.99,,2013-06-15 07:43:00,
2013-06-15 00:54:00,55.0,-99.9,-100.00,North,-999,-999.0,-999.0,-999,-99.99,,,-99.99,,2013-06-15 07:54:00,
2013-06-15 01:03:00,-999.0,-99.9,-100.00,NNE,31,6.0,7.0,-999,-99.99,,,-99.99,,2013-06-15 08:03:00,
2013-06-15 01:12:00,55.0,-99.9,-100.00,NNE,23,7.0,8.0,-999,-99.99,,,-99.99,,2013-06-15 08:12:00,
2013-06-15 01:22:00,54.0,-99.9,-100.00,NE,35,5.0,7.0,-999,-99.99,,,-99.99,,2013-06-15 08:22:00,
2013-06-15 01:34:00,-999.0,-99.9,-100.00,NE,43,7.0,8.0,-999,-99.99,,,-99.99,,2013-06-15 08:34:00,
2013-06-15 01:43:00,54.0,-99.9,-100.00,NE,44,8.0,9.0,-999,-99.99,,,-99.99,,2013-06-15 08:43:00,
2013-06-15 01:53:00,-999.0,-99.9,-100.00,NE,51,7.0,9.0,-999,-99.99,,,-99.99,,2013-06-15 08:53:00,
2013-06-15 02:02:00,-999.0,-99.9,-100.00,NE,51,9.0,11.0,-999,-99.99,,,-99.99,,2013-06-15 09:02:00,
2013-06-15 02:12:00,53.0,-99.9,-100.00,NE,46,8.0,11.0,-999,-99.99,,,-99.99,,2013-06-15 09:12:00,
2013-06-15 02:22:00,-999.0,-99.9,-100.00,NE,50,8.0,10.0,-999,-99.99,,,-99.99,,2013-06-15 09:22:00,
2013-06-15 02:33:00,53.0,-99.9,-100.00,NE,42,8.0,11.0,-999,-99.99,,,-99.99,,2013-06-15 09:33:00,
2013-06-15 02:43:00,53.0,-99.9,-100.00,NE,41,5.0,8.0,-999,-99.99,,,-99.99,,2013-06-15 09:43:00,
2013-06-15 02:52:00,54.0,-99.9,-100.00,NE,37,5.0,7.0,-999,-99.99,,,-99.99,,2013-06-15 09:52:00,
2013-06-15 03:02:00,-999.0,-99.9,-100.00,NE,37,6.0,8.0,-999,-99.99,,,-99.99,,2013-06-15 10:02:00,
2013-06-15 03:12:00,53.0,-99.9,-100.00,NE,35,6.0,8.0,-999,-99.99,,,-99.99,,2013-06-15 10:12:00,
2013-06-15 03:23:00,53.0,-99.9,-100.00,NE,35,6.0,8.0,-999,-99.99,,,-99.99,,2013-06-15 10:23:00,
2013-06-15 03:34:00,-999.0,-99.9,-100.00,NNE,29,6.0,9.0,-999,-99.99,,,-99.99,,2013-06-15 10:34:00,
2013-06-15 03:44:00,53.0,-99.9,-100.00,NE,36,5.0,7.0,-999,-99.99,,,-99.99,,2013-06-15 10:44:00,
2013-06-15 03:53:00,53.0,-99.9,-100.00,North,-999,-999.0,-999.0,-999,-99.99,,,-99.99,,2013-06-15 10:53:00,
2013-06-15 04:02:00,-999.0,-99.9,-100.00,NE,35,7.0,13.0,-999,-99.99,,,-99.99,,2013-06-15 11:02:00,
2013-06-15 04:12:00,53.0,-99.9,-100.00,NE,34,8.0,9.0,-999,-99.99,,,-99.99,,2013-06-15 11:12:00,
2013-06-15 04:22:00,-999.0,-99.9,-100.00,NNE,32,7.0,8.0,-999,-99.99,,,-99.99,,2013-06-15 11:22:00,
2013-06-15 04:33:00,-999.0,-99.9,-100.00,NNE,27,6.0,8.0,-999,-99.99,,,-99.99,,2013-06-15 11:33:00,
2013-06-15 04:43:00,-999.0,-99.9,-100.00,NE,48,11.0,15.0,-999,-99.99,,,-99.99,,2013-06-15 11:43:00,
2013-06-15 04:53:00,53.0,-99.9,-100.00,NE,37,6.0,7.0,-999,-99.99,,,-99.99,,2013-06-15 11:53:00,
2013-06-15 05:02:00,-999.0,-99.9,-100.00,NE,34,8.0,9.0,-999,-99.99,,,-99.99,,2013-06-15 12:02:00,
2013-06-15 05:12:00,52.0,-99.9,-100.00,NNE,33,7.0,9.0,-999,-99.99,,,-99.99,,2013-06-15 12:12:00,
2013-06-15 05:23:00,-999.0,-99.9,-100.00,NNE,32,5.0,6.0,-999,-99.99,,,-99.99,,2013-06-15 12:23:00,
2013-06-15 05:33:00,-999.0,-99.9,-100.00,NNE,32,7.0,9.0,-999,-99.99,,,-99.99,,2013-06-15 12:33:00,
2013-06-15 05:44:00,52.0,-99.9,-100.00,NE,36,7.0,9.0,-999,-99.99,,,-99.99,,2013-06-15 12:44:00,
2013-06-15 05:53:00,53.0,-99.9,-100.00,NE,40,6.0,8.0,-999,-99.99,,,-99.99,,2013-06-15 12:53:00,
2013-06-15 06:02:00,-999.0,-99.9,-100.00,NNE,28,6.0,8.0,-999,-99.99,,,-99.99,,2013-06-15 13:02:00,
2013-06-15 06:12:00,52.0,-99.9,-100.00,NE,39,5.0,7.0,-999,-99.99,,,-99.99,,2013-06-15 13:12:00,
2013-06-15 06:22:00,-999.0,-99.9,-100.00,NE,39,6.0,7.0,-999,-99.99,,,-99.99,,2013-06-15 13:22:00,
2013-06-15 06:33:00,-999.0,-99.9,-100.00,NE,48,8.0,11.0,-999,-99.99,,,-99.99,,2013-06-15 13:33:00,
2013-06-15 06:44:00,53.0,-99.9,-100.00,NE,40,8.0,11.0,-999,-99.99,,,-99.99,,2013-06-15 13:44:00,
2013-06-15 06:53:00,-999.0,-99.9,-100.00,NE,50,6.0,9.0,-999,-99.99,,,-99.99,,2013-06-15 13:53:00,
2013-06-15 07:02:00,-999.0,-99.9,-100.00,NE,50,6.0,9.0,-999,-99.99,,,-99.99,,2013-06-15 14:02:00,
2013-06-15 07:12:00,53.0,-99.9,-100.00,NE,44,6.0,9.0,-999,-99.99,,,-99.99,,2013-06-15 14:12:00,
2013-06-15 07:23:00,54.0,-99.9,-100.00,NE,52,11.0,13.0,-999,-99.99,,,-99.99,,2013-06-15 14:23:00,
2013-06-15 07:34:00,-999.0,-99.9,-100.00,NE,49,11.0,13.0,-999,-99.99,,,-99.99,,2013-06-15 14:34:00,
2013-06-15 07:43:00,55.0,-99.9,-100.00,NE,54,9.0,12.0,-999,-99.99,,,-99.99,,2013-06-15 14:43:00,
2013-06-15 07:54:00,56.0,-99.9,-100.00,North,-999,-999.0,-999.0,-999,-99.99,,,-99.99,,2013-06-15 14:54:00,
2013-06-15 08:02:00,56.0,-99.9,-100.00,North,-999,-999.0,-999.0,-999,-99.99,,,-99.99,,2013-06-15 15:02:00,
2013-06-15 08:12:00,57.0,-99.9,-100.00,North,5,4.0,5.0,-999,-99.99,,,-99.99,,2013-06-15 15:12:00,
2013-06-15 08:22:00,58.0,-99.9,-100.00,North,3,4.0,6.0,-999,-99.99,,,-99.99,,2013-06-15 15:22:00,
2013-06-15 08:33:00,-999.0,-99.9,-100.00,North,9,5.0,6.0,-999,-99.99,,,-99.99,,2013-06-15 15:33:00,
2013-06-15 08:43:00,58.0,-99.9,-100.00,North,9,4.0,7.0,-999,-99.99,,,-99.99,,2013-06-15 15:43:00,
2013-06-15 08:53:00,58.0,-99.9,-100.00,ENE,57,7.0,10.0,-999,-99.99,,,-99.99,,2013-06-15 15:53:00,
2013-06-15 09:02:00,58.0,-99.9,-100.00,ENE,57,7.0,10.0,-999,-99.99,,,-99.99,,2013-06-15 16:02:00,
2013-06-15 09:12:00,54.0,-99.9,-100.00,NW,310,11.0,12.0,-999,-99.99,,,-99.99,,2013-06-15 16:12:00,
2013-06-15 09:22:00,54.0,-99.9,-100.00,NW,310,11.0,12.0,-999,-99.99,,,-99.99,,2013-06-15 16:22:00,
2013-06-15 09:33:00,-999.0,-99.9,-100.00,NW,318,11.0,11.0,-999,-99.99,,,-99.99,,2013-06-15 16:33:00,
2013-06-15 09:43:00,54.0,-99.9,-100.00,NW,322,9.0,10.0,-999,-99.99,,,-99.99,,2013-06-15 16:43:00,
2013-06-15 09:54:00,55.0,-99.9,-100.00,NW,316,9.0,11.0,-999,-99.99,,,-99.99,,2013-06-15 16:54:00,
2013-06-15 10:02:00,-999.0,-99.9,-100.00,NW,315,11.0,12.0,-999,-99.99,,,-99.99,,2013-06-15 17:02:00,
2013-06-15 10:12:00,55.0,-99.9,-100.00,NW,321,13.0,14.0,-999,-99.99,,,-99.99,,2013-06-15 17:12:00,
2013-06-15 10:22:00,-999.0,-99.9,-100.00,NW,315,11.0,13.0,-999,-99.99,,,-99.99,,2013-06-15 17:22:00,
2013-06-15 10:32:00,55.0,-99.9,-100.00,NW,311,10.0,11.0,-999,-99.99,,,-99.99,,2013-06-15 17:32:00,
2013-06-15 10:43:00,55.0,-99.9,-100.00,NW,310,11.0,11.0,-999,-99.99,,,-99.99,,2013-06-15 17:43:00,
2013-06-15 10:52:00,55.0,-99.9,-100.00,NW,308,10.0,10.0,-999,-99.99,,,-99.99,,2013-06-15 17:52:00,
2013-06-15 11:02:00,55.0,-99.9,-100.00,NW,308,10.0,10.0,-999,-99.99,,,-99.99,,2013-06-15 18:02:00,
2013-06-15 11:12:00,54.0,-99.9,-100.00,WNW,295,11.0,12.0,-999,-99.99,,,-99.99,,2013-06-15 18:12:00,
2013-06-15 11:22:00,-999.0,-99.9,-100.00,WNW,295,11.0,12.0,-999,-99.99,,,-99.99,,2013-06-15 18:22:00,
2013-06-15 12:02:00,-999.0,-99.9,-100.00,WNW,289,9.0,10.0,-999,-99.99,,,-99.99,,2013-06-15 19:02:00,
2013-06-15 12:22:00,-999.0,-99.9,-100.00,WNW,292,9.0,9.0,-999,-99.99,,,-99.99,,2013-06-15 19:22:00,
2013-06-15 12:33:00,-999.0,-99.9,-100.00,WNW,300,8.0,9.0,-999,-99.99,,,-99.99,,2013-06-15 19:33:00,
2013-06-15 12:43:00,56.0,-99.9,-100.00,WNW,294,11.0,11.0,-999,-99.99,,,-99.99,,2013-06-15 19:43:00,
2013-06-15 12:53:00,56.0,-99.9,-100.00,WNW,290,10.0,11.0,-999,-99.99,,,-99.99,,2013-06-15 19:53:00,
2013-06-15 13:02:00,-999.0,-99.9,-100.00,WNW,293,12.0,12.0,-999,-99.99,,,-99.99,,2013-06-15 20:02:00,
2013-06-15 13:12:00,56.0,-99.9,-100.00,WNW,292,11.0,12.0,-999,-99.99,,,-99.99,,2013-06-15 20:12:00,
2013-06-15 13:22:00,-999.0,-99.9,-100.00,WNW,294,10.0,11.0,-999,-99.99,,,-99.99,,2013-06-15 20:22:00,
2013-06-15 13:34:00,-999.0,-99.9,-100.00,WNW,295,11.0,12.0,-999,-99.99,,,-99.99,,2013-06-15 20:34:00,
2013-06-15 13:43:00,57.0,-99.9,-100.00,WNW,289,11.0,12.0,-999,-99.99,,,-99.99,,2013-06-15 20:43:00,
2013-06-15 14:02:00,-999.0,-99.9,-100.00,WNW,287,10.0,11.0,-999,-99.99,,,-99.99,,2013-06-15 21:02:00,
2013-06-15 14:12:00,-999.0,-99.9,-100.00,WNW,287,10.0,11.0,-999,-99.99,,,-99.99,,2013-06-15 21:12:00,
2013-06-15 14:22:00,58.0,-99.9,-100.00,WNW,288,11.0,12.0,-999,-99.99,,,-99.99,,2013-06-15 21:22:00,
2013-06-15 14:53:00,58.0,-99.9,-100.00,WNW,289,11.0,12.0,-999,-99.99,,,-99.99,,2013-06-15 21:53:00,
2013-06-15 15:02:00,-999.0,-99.9,-100.00,WNW,292,11.0,12.0,-999,-99.99,,,-99.99,,2013-06-15 22:02:00,
2013-06-15 15:11:00,-999.0,-99.9,-100.00,WNW,292,11.0,12.0,-999,-99.99,,,-99.99,,2013-06-15 22:11:00,
2013-06-15 15:22:00,-999.0,-99.9,-100.00,WNW,292,11.0,12.0,-999,-99.99,,,-99.99,,2013-06-15 22:22:00,
2013-06-15 15:33:00,-999.0,-99.9,-100.00,WNW,292,11.0,12.0,-999,-99.99,,,-99.99,,2013-06-15 22:33:00,
2013-06-15 15:43:00,58.0,-99.9,-100.00,WNW,287,11.0,12.0,-999,-99.99,,,-99.99,,2013-06-15 22:43:00,
2013-06-15 15:54:00,59.0,-99.9,-100.00,WNW,287,10.0,11.0,-999,-99.99,,,-99.99,,2013-06-15 22:54:00,
2013-06-15 16:02:00,-999.0,-99.9,-100.00,WNW,300,7.0,9.0,-999,-99.99,,,-99.99,,2013-06-15 23:02:00,
2013-06-15 16:22:00,-999.0,-99.9,-100.00,NNW,333,4.0,5.0,-999,-99.99,,,-99.99,,2013-06-15 23:22:00,
2013-06-15 16:33:00,-999.0,-99.9,-100.00,NNW,333,4.0,5.0,-999,-99.99,,,-99.99,,2013-06-15 23:33:00,
2013-06-15 16:43:00,59.0,-99.9,-100.00,NW,326,2.0,2.0,-999,-99.99,,,-99.99,,2013-06-15 23:43:00,
2013-06-15 17:02:00,-999.0,-99.9,-100.00,NW,310,3.0,5.0,-999,-99.99,,,-99.99,,2013-06-16 00:02:00,
2013-06-15 17:12:00,59.0,-99.9,-100.00,WNW,301,4.0,6.0,-999,-99.99,,,-99.99,,2013-06-16 00:12:00,
2013-06-15 17:22:00,-999.0,-99.9,-100.00,WNW,295,5.0,7.0,-999,-99.99,,,-99.99,,2013-06-16 00:22:00,
2013-06-15 17:34:00,-999.0,-99.9,-100.00,WNW,293,5.0,7.0,-999,-99.99,,,-99.99,,2013-06-16 00:34:00,
2013-06-15 17:43:00,-999.0,-99.9,-100.00,WNW,293,4.0,6.0,-999,-99.99,,,-99.99,,2013-06-16 00:43:00,
2013-06-15 17:53:00,59.0,-99.9,-100.00,NW,321,2.0,4.0,-999,-99.99,,,-99.99,,2013-06-16 00:53:00,
2013-06-15 18:02:00,-999.0,-99.9,-100.00,WNW,301,4.0,5.0,-999,-99.99,,,-99.99,,2013-06-16 01:02:00,
2013-06-15 18:12:00,59.0,-99.9,-100.00,WNW,293,5.0,7.0,-999,-99.99,,,-99.99,,2013-06-16 01:12:00,
2013-06-15 18:33:00,-999.0,-99.9,-100.00,NW,306,4.0,6.0,-999,-99.99,,,-99.99,,2013-06-16 01:33:00,
2013-06-15 18:53:00,-999.0,-99.9,-100.00,WNW,301,5.0,6.0,-999,-99.99,,,-99.99,,2013-06-16 01:53:00,
2013-06-15 19:02:00,-999.0,-99.9,-100.00,NNW,328,2.0,3.0,-999,-99.99,,,-99.99,,2013-06-16 02:02:00,
2013-06-15 19:22:00,-999.0,-99.9,-100.00,NW,304,3.0,4.0,-999,-99.99,,,-99.99,,2013-06-16 02:22:00,
2013-06-15 19:33:00,-999.0,-99.9,-100.00,NW,319,1.0,2.0,-999,-99.99,,,-99.99,,2013-06-16 02:33:00,
2013-06-15 20:02:00,-999.0,-99.9,-100.00,NNW,334,1.0,1.0,-999,-99.99,,,-99.99,,2013-06-16 03:02:00,
2013-06-15 20:22:00,60.0,-99.9,-100.00,SE,133,1.0,2.0,-999,-99.99,,,-99.99,,2013-06-16 03:22:00,
2013-06-15 20:34:00,60.0,-99.9,-100.00,SE,133,1.0,2.0,-999,-99.99,,,-99.99,,2013-06-16 03:34:00,
2013-06-15 20:43:00,60.0,-99.9,-100.00,SSE,160,2.0,2.0,-999,-99.99,,,-99.99,,2013-06-16 03:43:00,
2013-06-15 20:53:00,60.0,-99.9,-100.00,NW,315,0.0,1.0,-999,-99.99,,,-99.99,,2013-06-16 03:53:00,
2013-06-15 21:02:00,-999.0,-99.9,-100.00,South,181,1.0,1.0,-999,-99.99,,,-99.99,,2013-06-16 04:02:00,
2013-06-15 21:12:00,59.0,-99.9,-100.00,South,179,2.0,2.0,-999,-99.99,,,-99.99,,2013-06-16 04:12:00,
2013-06-15 21:23:00,59.0,-99.9,-100.00,South,179,2.0,2.0,-999,-99.99,,,-99.99,,2013-06-16 04:23:00,
2013-06-15 21:34:00,-999.0,-99.9,-100.00,SE,142,3.0,4.0,-999,-99.99,,,-99.99,,2013-06-16 04:34:00,
2013-06-15 21:43:00,-999.0,-99.9,-100.00,SE,142,4.0,5.0,-999,-99.99,,,-99.99,,2013-06-16 04:43:00,
2013-06-15 21:53:00,58.0,-99.9,-100.00,SSE,157,4.0,5.0,-999,-99.99,,,-99.99,,2013-06-16 04:53:00,
2013-06-15 22:02:00,58.0,-99.9,-100.00,SSE,162,6.0,6.0,-999,-99.99,,,-99.99,,2013-06-16 05:02:00,
2013-06-15 22:12:00,58.0,-99.9,-100.00,SSE,150,3.0,4.0,-999,-99.99,,,-99.99,,2013-06-16 05:12:00,
2013-06-15 22:22:00,-999.0,-99.9,-100.00,SSE,152,3.0,4.0,-999,-99.99,,,-99.99,,2013-06-16 05:22:00,
2013-06-15 22:34:00,58.0,-99.9,-100.00,SSE,157,3.0,4.0,-999,-99.99,,,-99.99,,2013-06-16 05:34:00,
2013-06-15 22:43:00,58.0,-99.9,-100.00,SSE,154,3.0,4.0,-999,-99.99,,,-99.99,,2013-06-16 05:43:00,
2013-06-15 22:53:00,58.0,-99.9,-100.00,SSE,162,6.0,6.0,-999,-99.99,,,-99.99,,2013-06-16 05:53:00,
2013-06-15 23:02:00,-999.0,-99.9,-100.00,SE,138,4.0,6.0,-999,-99.99,,,-99.99,,2013-06-16 06:02:00,
2013-06-15 23:12:00,58.0,-99.9,-100.00,SSE,152,5.0,6.0,-999,-99.99,,,-99.99,,2013-06-16 06:12:00,
2013-06-15 23:23:00,-999.0,-99.9,-100.00,SSE,149,4.0,6.0,-999,-99.99,,,-99.99,,2013-06-16 06:23:00,
2013-06-15 23:33:00,-999.0,-99.9,-100.00,SSE,153,5.0,6.0,-999,-99.99,,,-99.99,,2013-06-16 06:33:00,
2013-06-15 23:43:00,58.0,-99.9,-100.00,SE,142,3.0,4.0,-999,-99.99,,,-99.99,,2013-06-16 06:43:00,
2013-06-15 23:52:00,58.0,-99.9,-100.00,SE,145,4.0,6.0,-999,-99.99,,,-99.99,,2013-06-16 06:52:00,